Time;durP1;ratioP1;P1;durP2;ratioP2;P2;SDS_P1;SDS_P2;PMS_P1;PMS_P2;Temp;Humidity;BMP_temperature;BMP_pressure;BME280_temperature;BME280_humidity;BME280_pressure;Samples;Min_cycle;Max_cycle;Signal;HPM_P1;HPM_P2
2022/11/21 00:00:44;;;;;;;16.97;4.20;;;;;;;4.62;100.00;100417.34;5012974;28;20492;-96
2022/11/21 00:03:10;;;;;;;16.80;4.10;;;;;;;4.57;100.00;100417.19;5005648;28;20339;-96
2022/11/21 00:05:42;;;;;;;15.57;4.45;;;;;;;4.51;100.00;100413.63;5029001;28;20013;-96
2022/11/21 00:08:09;;;;;;;22.02;4.10;;;;;;;4.46;100.00;100413.50;5023800;28;20057;-96
2022/11/21 00:10:37;;;;;;;22.60;4.25;;;;;;;4.47;100.00;100415.13;5013717;28;20468;-96
2022/11/21 00:13:03;;;;;;;19.30;4.72;;;;;;;4.49;100.00;100423.63;5013277;28;20076;-95
2022/11/21 00:15:28;;;;;;;28.40;4.65;;;;;;;4.49;100.00;100436.91;5014438;28;20025;-96
2022/11/21 00:17:54;;;;;;;17.30;5.30;;;;;;;4.48;100.00;100439.81;5013931;28;20026;-96
2022/11/21 00:20:20;;;;;;;21.27;5.20;;;;;;;4.53;100.00;100439.94;5012762;28;20040;-95
2022/11/21 00:22:46;;;;;;;19.52;4.90;;;;;;;4.53;100.00;100434.63;5013092;28;20118;-95
2022/11/21 00:25:12;;;;;;;20.95;5.10;;;;;;;4.47;100.00;100438.19;5013104;28;20081;-95
2022/11/21 00:27:38;;;;;;;24.10;5.43;;;;;;;4.50;100.00;100451.00;4998339;28;20077;-93
2022/11/21 00:30:04;;;;;;;16.30;5.13;;;;;;;4.49;100.00;100454.69;4996281;28;20042;-95
2022/11/21 00:32:30;;;;;;;25.55;5.28;;;;;;;4.50;100.00;100441.19;5011476;28;20029;-94
2022/11/21 00:34:56;;;;;;;22.05;6.03;;;;;;;4.49;100.00;100439.56;5011914;28;20114;-94
2022/11/21 00:37:21;;;;;;;27.07;5.90;;;;;;;4.43;100.00;100444.97;5013039;28;20072;-94
2022/11/21 00:39:46;;;;;;;25.95;5.05;;;;;;;4.36;100.00;100435.28;5012283;28;20037;-94
2022/11/21 00:42:11;;;;;;;20.83;4.57;;;;;;;4.32;100.00;100441.25;5011573;28;20084;-93
2022/11/21 00:44:37;;;;;;;17.83;4.30;;;;;;;4.20;100.00;100436.72;5012687;28;20026;-94
2022/11/21 00:47:02;;;;;;;20.37;4.03;;;;;;;4.17;100.00;100431.84;5012862;28;20049;-94
2022/11/21 00:49:27;;;;;;;20.80;4.50;;;;;;;4.17;100.00;100420.44;5011565;28;20022;-94
2022/11/21 00:51:53;;;;;;;25.30;4.60;;;;;;;4.22;100.00;100417.91;5010366;28;20034;-95
2022/11/21 00:54:18;;;;;;;24.10;4.28;;;;;;;4.24;100.00;100414.00;5010786;28;20484;-95
2022/11/21 00:56:44;;;;;;;18.57;4.37;;;;;;;4.26;100.00;100435.00;5012174;28;20033;-93
2022/11/21 00:59:10;;;;;;;19.57;4.13;;;;;;;4.23;100.00;100432.78;5014581;28;20022;-93
2022/11/21 01:01:35;;;;;;;21.58;4.55;;;;;;;4.18;100.00;100438.78;5015348;28;20026;-93
2022/11/21 01:04:02;;;;;;;27.37;4.70;;;;;;;4.08;100.00;100426.06;5014439;28;20032;-94
2022/11/21 01:06:27;;;;;;;25.42;4.18;;;;;;;4.08;100.00;100428.69;5017816;28;20034;-94
2022/11/21 01:08:52;;;;;;;20.70;4.43;;;;;;;4.01;100.00;100427.16;5021052;28;20494;-95
2022/11/21 01:11:19;;;;;;;24.47;4.27;;;;;;;3.98;100.00;100427.63;5025956;28;20026;-95
2022/11/21 01:13:47;;;;;;;22.95;3.97;;;;;;;3.86;100.00;100414.28;5026731;28;20025;-95
2022/11/21 01:16:15;;;;;;;17.70;3.97;;;;;;;3.97;100.00;100432.13;5012746;28;20096;-94
2022/11/21 01:18:41;;;;;;;21.73;4.32;;;;;;;3.92;100.00;100429.31;5014819;28;20034;-94
2022/11/21 01:21:12;;;;;;;18.45;3.72;;;;;;;3.93;100.00;100436.25;5011718;28;20065;-94
2022/11/21 01:23:37;;;;;;;23.20;3.93;;;;;;;3.91;100.00;100431.19;4992885;28;20113;-95
2022/11/21 01:26:04;;;;;;;20.37;4.10;;;;;;;3.92;100.00;100439.94;4992787;28;20316;-96
2022/11/21 01:28:30;;;;;;;16.53;3.83;;;;;;;3.78;100.00;100428.66;5011868;28;20022;-93
2022/11/21 01:31:03;;;;;;;30.30;4.60;;;;;;;3.77;100.00;100443.78;5009248;28;20292;-96
2022/11/21 01:33:28;;;;;;;16.52;3.90;;;;;;;3.69;100.00;100438.75;5012507;28;20029;-95
2022/11/21 01:35:53;;;;;;;22.70;6.37;;;;;;;3.74;100.00;100438.13;5012192;28;20026;-93
2022/11/21 01:38:18;;;;;;;34.60;12.03;;;;;;;3.76;100.00;100447.44;5012006;28;20034;-94
2022/11/21 01:40:44;;;;;;;46.10;15.23;;;;;;;3.75;100.00;100443.19;5007748;28;20061;-95
2022/11/21 01:43:15;;;;;;;49.38;15.30;;;;;;;3.71;100.00;100444.66;4992308;28;20594;-95
2022/11/21 01:45:57;;;;;;;52.77;17.23;;;;;;;3.67;100.00;100447.97;5010467;28;20057;-93
2022/11/21 01:48:53;;;;;;;55.83;17.97;;;;;;;3.59;100.00;100435.81;5011529;28;20288;-94
2022/11/21 01:51:42;;;;;;;54.50;17.33;;;;;;;3.47;100.00;100433.88;4991542;28;20093;-95
2022/11/21 01:54:26;;;;;;;55.40;18.08;;;;;;;3.45;100.00;100430.66;5012237;28;20030;-94
2022/11/21 01:57:14;;;;;;;51.22;16.25;;;;;;;3.40;100.00;100417.28;5014715;28;20484;-95
2022/11/21 01:59:58;;;;;;;59.30;16.45;;;;;;;3.40;100.00;100414.63;5022684;28;20049;-94
2022/11/21 02:02:28;;;;;;;55.63;17.52;;;;;;;3.41;100.00;100413.59;5016215;28;20104;-95
2022/11/21 02:04:55;;;;;;;58.77;17.73;;;;;;;3.39;100.00;100433.38;5011834;28;20113;-95
2022/11/21 02:07:23;;;;;;;58.20;17.13;;;;;;;3.31;100.00;100439.75;5011357;28;20324;-95
2022/11/21 02:09:54;;;;;;;52.47;18.20;;;;;;;3.30;100.00;100443.44;5010703;28;20060;-95
2022/11/21 02:12:28;;;;;;;63.10;19.23;;;;;;;3.25;100.00;100456.53;5012048;28;20044;-95
2022/11/21 02:14:54;;;;;;;63.13;19.17;;;;;;;3.23;100.00;100458.59;5011796;28;20034;-96
2022/11/21 02:17:22;;;;;;;57.15;19.02;;;;;;;3.27;100.00;100459.78;5011793;28;20084;-95
2022/11/21 02:19:55;;;;;;;56.83;19.52;;;;;;;3.31;100.00;100460.94;5009702;28;20083;-95
2022/11/21 02:22:38;;;;;;;58.87;21.10;;;;;;;3.20;100.00;100461.66;5010765;28;20050;-94
2022/11/21 02:25:11;;;;;;;62.43;20.83;;;;;;;3.08;100.00;100446.50;5011388;28;20291;-94
2022/11/21 02:27:37;;;;;;;60.53;20.00;;;;;;;2.99;100.00;100443.31;5011392;28;20489;-95
2022/11/21 02:30:05;;;;;;;69.05;19.85;;;;;;;3.01;100.00;100464.28;5008290;28;20030;-94
2022/11/21 02:32:38;;;;;;;82.30;22.48;;;;;;;2.95;100.00;100465.13;5007815;28;20034;-93
2022/11/21 02:35:04;;;;;;;68.03;20.73;;;;;;;2.92;100.00;100460.28;4993037;28;20018;-94
2022/11/21 02:37:30;;;;;;;69.03;20.35;;;;;;;2.88;100.00;100458.06;4991589;28;20030;-95
2022/11/21 02:39:59;;;;;;;69.40;21.20;;;;;;;2.80;100.00;100434.50;4991403;28;20035;-94
2022/11/21 02:42:56;;;;;;;72.17;20.00;;;;;;;2.99;100.00;100453.91;5005848;28;20119;-95
2022/11/21 02:45:22;;;;;;;72.90;20.83;;;;;;;3.04;100.00;100458.56;5009766;28;20281;-93
2022/11/21 02:47:49;;;;;;;74.30;21.70;;;;;;;3.06;100.00;100461.78;5011471;28;20095;-94
2022/11/21 02:50:19;;;;;;;86.07;22.80;;;;;;;3.09;100.00;100469.31;5012933;28;20030;-94
2022/11/21 02:52:45;;;;;;;80.23;22.37;;;;;;;3.10;100.00;100470.94;5013968;28;20054;-95
2022/11/21 02:55:14;;;;;;;80.90;22.73;;;;;;;3.14;100.00;100471.31;5014445;28;20281;-96
2022/11/21 02:57:41;;;;;;;157.38;23.67;;;;;;;3.11;100.00;100472.53;5015356;28;20056;-95
2022/11/21 03:00:08;;;;;;;143.40;25.20;;;;;;;3.10;100.00;100476.22;5019560;28;20026;-96
2022/11/21 03:02:34;;;;;;;116.63;23.75;;;;;;;3.08;100.00;100480.94;5031123;28;20014;-96
2022/11/21 03:05:01;;;;;;;95.03;22.17;;;;;;;3.10;100.00;100476.22;5029669;28;20465;-95
2022/11/21 03:07:26;;;;;;;140.93;24.17;;;;;;;3.10;100.00;100472.75;5014953;28;20125;-96
2022/11/21 03:09:51;;;;;;;105.10;22.23;;;;;;;3.01;100.00;100459.78;5014688;28;20077;-95
2022/11/21 03:12:17;;;;;;;90.53;22.75;;;;;;;3.08;100.00;100456.28;5003646;28;20435;-95
2022/11/21 03:14:42;;;;;;;77.20;21.20;;;;;;;3.06;100.00;100455.66;5013609;28;20041;-95
2022/11/21 03:17:07;;;;;;;90.10;22.70;;;;;;;3.02;100.00;100450.81;5015231;28;20460;-95
2022/11/21 03:19:33;;;;;;;149.20;23.93;;;;;;;3.01;100.00;100451.03;5012299;28;20440;-95
2022/11/21 03:21:58;;;;;;;141.20;23.00;;;;;;;2.97;100.00;100447.19;5012092;28;20029;-95
2022/11/21 03:24:23;;;;;;;94.63;20.85;;;;;;;2.92;100.00;100441.75;5013318;28;20033;-96
2022/11/21 03:26:49;;;;;;;84.20;21.30;;;;;;;2.95;100.00;100443.94;5013142;28;20038;-95
2022/11/21 03:29:14;;;;;;;93.23;21.47;;;;;;;3.01;100.00;100451.03;5013649;28;20075;-96
2022/11/21 03:31:39;;;;;;;156.27;22.13;;;;;;;2.97;100.00;100448.03;5011566;28;20633;-96
2022/11/21 03:34:05;;;;;;;79.57;20.90;;;;;;;3.00;100.00;100438.81;5012855;28;20030;-95
2022/11/21 03:36:30;;;;;;;125.78;22.05;;;;;;;2.92;100.00;100433.81;5012216;28;20029;-96
2022/11/21 03:38:56;;;;;;;130.47;21.87;;;;;;;2.93;100.00;100446.81;5012587;28;20041;-95
2022/11/21 03:41:28;;;;;;;82.30;22.33;;;;;;;2.94;100.00;100445.81;5013442;28;20141;-96
2022/11/21 03:43:54;;;;;;;77.95;20.92;;;;;;;2.92;100.00;100437.25;5014432;28;20026;-94
2022/11/21 03:46:19;;;;;;;77.07;20.67;;;;;;;2.94;100.00;100442.31;5015122;28;20076;-96
2022/11/21 03:48:45;;;;;;;85.50;21.57;;;;;;;2.92;100.00;100437.25;5018818;28;20478;-93
2022/11/21 03:51:10;;;;;;;78.83;22.17;;;;;;;2.92;100.00;100442.56;5031865;28;20065;-94
2022/11/21 03:53:35;;;;;;;72.23;20.33;;;;;;;2.89;100.00;100432.41;5012496;28;20292;-94
2022/11/21 03:56:01;;;;;;;81.43;23.40;;;;;;;2.87;100.00;100440.56;5014764;28;20030;-95
2022/11/21 03:58:26;;;;;;;123.53;22.37;;;;;;;2.87;100.00;100447.69;5012224;28;20038;-95
2022/11/21 04:00:51;;;;;;;125.67;22.27;;;;;;;2.90;100.00;100443.81;5012978;28;20038;-95
2022/11/21 04:03:16;;;;;;;132.53;21.17;;;;;;;2.92;100.00;100445.19;5013326;28;20556;-94
2022/11/21 04:05:43;;;;;;;79.10;21.00;;;;;;;2.94;100.00;100444.97;5003835;28;20025;-96
2022/11/21 04:08:09;;;;;;;209.23;23.13;;;;;;;2.87;100.00;100432.63;5011434;28;20561;-96
2022/11/21 04:10:36;;;;;;;127.35;22.13;;;;;;;2.85;100.00;100444.44;5008202;28;20053;-96
2022/11/21 04:13:02;;;;;;;104.80;22.00;;;;;;;3.02;100.00;100471.19;5015135;28;20030;-96
2022/11/21 04:15:27;;;;;;;190.07;22.87;;;;;;;2.98;100.00;100454.94;5008956;28;20280;-96
2022/11/21 04:17:52;;;;;;;185.37;24.27;;;;;;;2.99;100.00;100443.31;4995900;28;20347;-96
2022/11/21 04:20:18;;;;;;;161.73;24.73;;;;;;;2.79;100.00;100411.72;5005767;28;20032;-95
2022/11/21 04:22:43;;;;;;;124.20;23.10;;;;;;;2.97;100.00;100441.91;5013629;28;20049;-96
2022/11/21 04:25:09;;;;;;;72.30;20.67;;;;;;;2.97;100.00;100439.25;5013313;28;20042;-96
2022/11/21 04:27:34;;;;;;;84.23;20.60;;;;;;;2.97;100.00;100433.97;5013368;28;20026;-96
2022/11/21 04:29:59;;;;;;;172.80;22.77;;;;;;;2.90;100.00;100427.94;5011808;28;20120;-95
2022/11/21 04:32:25;;;;;;;79.13;20.58;;;;;;;2.94;100.00;100421.16;5005717;28;20022;-96
2022/11/21 04:34:50;;;;;;;90.20;20.73;;;;;;;3.01;100.00;100430.66;5005771;28;20397;-94
2022/11/21 04:37:15;;;;;;;90.93;21.73;;;;;;;2.98;100.00;100420.53;5010954;28;20496;-96
2022/11/21 04:39:41;;;;;;;159.47;22.77;;;;;;;3.01;100.00;100429.84;5010366;28;20385;-96
2022/11/21 04:42:06;;;;;;;86.00;19.80;;;;;;;2.93;100.00;100411.59;5007197;28;20385;-95
2022/11/21 04:44:31;;;;;;;89.25;20.58;;;;;;;2.88;100.00;100404.31;4993921;28;20026;-96
2022/11/21 04:46:58;;;;;;;108.47;20.87;;;;;;;2.84;100.00;100398.66;5005167;28;20049;-95
2022/11/21 04:49:24;;;;;;;70.93;19.27;;;;;;;2.80;100.00;100408.03;5011685;28;20496;-96
2022/11/21 04:51:49;;;;;;;70.37;18.50;;;;;;;2.75;100.00;100401.78;5019719;28;20316;-95
2022/11/21 04:54:48;;;;;;;56.23;18.03;;;;;;;2.66;100.00;100407.31;5037392;28;20045;-96
2022/11/21 04:57:38;;;;;;;66.65;17.35;;;;;;;2.58;100.00;100411.03;5035926;28;20030;-96
2022/11/21 05:00:35;;;;;;;105.70;17.85;;;;;;;2.53;100.00;100415.38;5015311;28;20065;-96
2022/11/21 05:03:05;;;;;;;108.68;17.75;;;;;;;2.51;100.00;100402.38;5025964;28;20076;-96
2022/11/21 05:05:31;;;;;;;101.23;18.40;;;;;;;2.49;100.00;100400.94;5013022;28;20030;-90
2022/11/21 05:07:58;;;;;;;92.33;18.60;;;;;;;2.52;100.00;100401.34;5012650;28;20871;-92
2022/11/21 05:10:23;;;;;;;58.47;18.58;;;;;;;2.52;100.00;100395.22;5008260;28;20033;-92
2022/11/21 05:15:42;;;;;;;65.55;18.25;;;;;;;2.60;100.00;100399.44;5011249;28;20108;-92
2022/11/21 05:18:07;;;;;;;121.07;20.00;;;;;;;2.58;100.00;100391.72;5011484;28;20034;-91
2022/11/21 05:20:33;;;;;;;113.33;20.10;;;;;;;2.62;100.00;100394.75;5009522;28;20026;-92
2022/11/21 05:22:58;;;;;;;86.70;19.97;;;;;;;2.69;100.00;100392.88;5008263;28;20026;-92
2022/11/21 05:25:23;;;;;;;118.20;19.50;;;;;;;2.72;100.00;100385.31;4993069;28;20061;-92
2022/11/21 05:27:48;;;;;;;107.93;19.67;;;;;;;2.72;100.00;100379.22;5004869;28;20045;-91
2022/11/21 05:30:14;;;;;;;113.13;20.57;;;;;;;2.72;100.00;100374.72;5011713;28;20113;-96
2022/11/21 05:32:40;;;;;;;115.37;20.17;;;;;;;2.66;100.00;100370.28;5011910;28;20026;-94
2022/11/21 05:35:06;;;;;;;222.60;21.88;;;;;;;2.69;100.00;100374.34;5014695;28;20037;-95
2022/11/21 05:37:32;;;;;;;125.07;19.60;;;;;;;2.70;100.00;100373.31;5023324;28;20050;-96
2022/11/21 05:39:57;;;;;;;105.05;19.08;;;;;;;2.73;100.00;100375.53;5014638;28;20030;-91
2022/11/21 05:43:44;;;;;;;126.47;19.90;;;;;;;2.77;100.00;100373.28;5018547;28;20033;-92
2022/11/21 05:45:08;;;;;;;134.05;19.35;;;;;;;2.79;100.00;100369.38;4993169;28;20030;-91
2022/11/21 05:47:34;;;;;;;124.03;19.45;;;;;;;2.80;100.00;100370.19;4994645;28;20038;-92
2022/11/21 05:49:59;;;;;;;263.97;22.00;;;;;;;2.82;100.00;100363.66;5009626;28;20386;-92
2022/11/21 05:52:24;;;;;;;120.83;18.90;;;;;;;2.80;100.00;100363.06;5011020;28;20038;-93
2022/11/21 05:54:49;;;;;;;89.73;19.40;;;;;;;2.87;100.00;100369.09;5009995;28;20026;-93
2022/11/21 05:57:15;;;;;;;135.57;19.73;;;;;;;2.87;100.00;100369.09;5010947;28;20030;-93
2022/11/21 05:59:40;;;;;;;127.27;18.43;;;;;;;2.89;100.00;100358.28;5008540;28;20121;-93
2022/11/21 06:04:51;;;;;;;218.55;22.00;;;;;;;2.95;100.00;100353.94;5012231;28;20100;-93
2022/11/21 06:07:16;;;;;;;184.30;22.03;;;;;;;2.93;100.00;100356.84;5010051;28;20416;-94
2022/11/21 06:09:42;;;;;;;195.63;23.27;;;;;;;2.93;100.00;100342.78;5011044;28;20037;-93
2022/11/21 06:12:07;;;;;;;134.27;20.53;;;;;;;2.91;100.00;100350.16;5010848;28;20022;-94
2022/11/21 06:14:32;;;;;;;76.90;19.20;;;;;;;2.95;100.00;100352.13;5011028;28;20026;-94
2022/11/21 06:16:57;;;;;;;117.13;20.40;;;;;;;2.93;100.00;100342.78;5010422;28;20393;-93
2022/11/21 06:19:23;;;;;;;63.23;18.70;;;;;;;2.96;100.00;100353.75;5013902;28;20030;-93
2022/11/21 06:21:48;;;;;;;70.50;19.23;;;;;;;2.98;100.00;100345.56;5012355;28;20038;-96
2022/11/21 06:24:13;;;;;;;60.67;18.83;;;;;;;2.98;100.00;100351.69;5021331;28;20029;-93
2022/11/21 06:29:21;;;;;;;58.42;18.10;;;;;;;2.97;100.00;100338.66;5052184;23;20057;-96
2022/11/21 06:32:12;;;;;;;;;;;;;;;;;;;;;
2022/11/21 06:34:55;;;;;;;;;;;;;;;;;;;;;
2022/11/21 06:37:34;;;;;;;54.85;17.50;;;;;;;2.97;100.00;100306.91;5017583;28;20120;-95
2022/11/21 06:40:01;;;;;;;53.27;17.80;;;;;;;2.99;100.00;100308.31;5017113;28;20056;-93
2022/11/21 06:42:48;;;;;;;49.70;17.27;;;;;;;3.02;100.00;100315.00;5016379;28;20314;-91
2022/11/21 06:45:19;;;;;;;74.00;18.67;;;;;;;2.97;100.00;100309.56;5006443;28;20038;-91
2022/11/21 06:47:58;;;;;;;;;;;;;;;;;;;;;
2022/11/21 06:50:28;;;;;;;65.22;19.98;;;;;;;3.00;100.00;100306.47;5030655;28;20065;-92
2022/11/21 06:53:07;;;;;;;58.33;19.60;;;;;;;3.06;100.00;100318.84;5018613;28;20038;-94
2022/11/21 06:55:47;;;;;;;;;;;;;;;;;;;;;
2022/11/21 06:58:22;;;;;;;52.00;16.65;;;;;;;2.88;100.00;100315.16;4995572;28;20052;-91
2022/11/21 07:00:57;;;;;;;54.50;17.90;;;;;;;2.87;100.00;100302.13;5000183;28;20060;-92
2022/11/21 07:03:52;;;;;;;;;;;;;;;;;;;;;
2022/11/21 07:06:21;;;;;;;53.85;16.92;;;;;;;2.85;100.00;100289.13;5024123;28;20068;-96
2022/11/21 07:14:24;;;;;;;;;;;;;;;;;;;;;
2022/11/21 07:17:15;;;;;;;51.05;17.20;;;;;;;2.99;100.00;100291.63;5027874;28;20536;-95
2022/11/21 07:25:55;;;;;;;58.43;17.90;;;;;;;3.02;100.00;100293.81;4667526;26;20042;-92
2022/11/21 07:28:25;;;;;;;59.43;18.03;;;;;;;2.95;100.00;100285.13;5019281;28;20341;-94
2022/11/21 07:31:00;;;;;;;58.80;19.10;;;;;;;3.02;100.00;100297.25;5008798;28;20034;-92
2022/11/21 07:39:06;;;;;;;;;;;;;;;;;;;;;
2022/11/21 07:42:04;;;;;;;54.10;17.95;;;;;;;3.24;100.00;100275.66;4995483;28;20038;-93
2022/11/21 07:45:11;;;;;;;;;;;;;;;;;;;;;
2022/11/21 07:58:35;;;;;;;52.15;15.20;;;;;;;3.54;100.00;100276.69;5077749;23;20081;-93
2022/11/21 08:01:24;;;;;;;60.10;17.43;;;;;;;3.79;100.00;100295.94;5003238;28;20117;-93
2022/11/21 08:03:54;;;;;;;58.33;18.95;;;;;;;3.78;100.00;100285.53;4990068;28;20192;-95
2022/11/21 08:06:19;;;;;;;57.53;19.03;;;;;;;3.79;100.00;100284.50;4996149;28;20042;-94
2022/11/21 08:08:47;;;;;;;50.15;16.60;;;;;;;3.83;100.00;100276.94;4986692;28;20036;-96
2022/11/21 08:11:12;;;;;;;45.30;14.97;;;;;;;3.82;100.00;100270.00;4995250;28;20054;-96
2022/11/21 08:13:39;;;;;;;50.80;15.33;;;;;;;3.91;100.00;100276.59;4990703;28;20376;-96
2022/11/21 08:16:05;;;;;;;49.00;14.65;;;;;;;3.87;100.00;100264.81;4975960;28;20113;-95
2022/11/21 08:18:30;;;;;;;41.33;12.30;;;;;;;3.91;100.00;100274.78;4977544;28;20038;-96
2022/11/21 08:20:56;;;;;;;50.90;13.50;;;;;;;3.76;100.00;100272.53;4976220;28;20031;-95
2022/11/21 08:23:21;;;;;;;36.60;13.47;;;;;;;3.55;100.00;100257.13;4979523;28;20050;-95
2022/11/21 08:25:46;;;;;;;34.65;11.60;;;;;;;3.43;100.00;100260.56;4996151;28;20145;-95
2022/11/21 08:28:12;;;;;;;36.27;11.30;;;;;;;3.46;100.00;100267.22;4994866;28;20030;-95
2022/11/21 08:30:39;;;;;;;37.67;11.13;;;;;;;3.48;100.00;100273.91;4993754;28;20026;-94
2022/11/21 08:33:05;;;;;;;36.03;12.00;;;;;;;3.48;100.00;100263.31;4994460;28;20477;-95
2022/11/21 08:35:30;;;;;;;41.85;12.18;;;;;;;3.53;100.00;100251.25;4993214;28;20022;-95
2022/11/21 08:37:59;;;;;;;40.77;11.27;;;;;;;3.56;100.00;100256.09;4994657;28;20018;-94
2022/11/21 08:40:26;;;;;;;42.53;11.18;;;;;;;3.48;100.00;100239.47;4987775;28;20121;-95
2022/11/21 08:43:02;;;;;;;36.83;11.45;;;;;;;3.57;100.00;100241.81;4984021;28;20074;-94
2022/11/21 08:45:28;;;;;;;33.60;10.32;;;;;;;3.60;100.00;100241.38;4975217;28;20073;-95
2022/11/21 08:47:54;;;;;;;31.57;10.73;;;;;;;3.57;100.00;100236.53;4975245;28;20031;-95
2022/11/21 08:50:20;;;;;;;35.65;9.95;;;;;;;3.58;100.00;100240.78;4988251;28;20030;-94
2022/11/21 08:52:45;;;;;;;36.65;10.13;;;;;;;3.56;100.00;100246.28;4993374;28;20516;-93
2022/11/21 08:55:11;;;;;;;29.47;8.87;;;;;;;3.53;100.00;100232.69;4995883;28;20046;-93
2022/11/21 08:57:37;;;;;;;27.87;8.90;;;;;;;3.54;100.00;100242.25;4993872;28;20034;-94
2022/11/21 09:00:03;;;;;;;34.03;8.93;;;;;;;3.57;100.00;100239.16;4994095;28;20022;-96
2022/11/21 09:02:28;;;;;;;29.95;8.50;;;;;;;3.57;100.00;100228.56;4993014;28;20038;-95
2022/11/21 09:04:54;;;;;;;30.57;9.50;;;;;;;3.61;100.00;100232.38;4990470;28;20033;-95
2022/11/21 09:07:19;;;;;;;33.97;8.83;;;;;;;3.59;100.00;100229.94;4975314;28;20027;-96
2022/11/21 09:09:44;;;;;;;19.45;7.88;;;;;;;3.64;100.00;100224.78;4974248;28;20058;-96
2022/11/21 09:12:10;;;;;;;29.67;8.77;;;;;;;3.65;100.00;100222.97;4975195;28;20034;-95
2022/11/21 09:20:03;;;;;;;30.00;9.52;;;;;;;3.73;100.00;100219.97;4985783;28;20040;-95
2022/11/21 09:22:28;;;;;;;32.43;7.97;;;;;;;3.74;100.00;100215.50;4994048;28;20109;-94
2022/11/21 09:24:54;;;;;;;31.00;7.73;;;;;;;3.80;100.00;100227.81;4997046;28;20026;-95
2022/11/21 09:27:19;;;;;;;28.55;8.35;;;;;;;3.84;100.00;100213.09;5011678;28;20025;-94
2022/11/21 09:29:44;;;;;;;31.03;7.97;;;;;;;3.86;100.00;100218.97;4993545;28;20413;-95
2022/11/21 09:32:09;;;;;;;34.10;8.43;;;;;;;3.89;100.00;100201.78;4993593;28;20513;-93
2022/11/21 09:34:35;;;;;;;28.57;7.93;;;;;;;3.90;100.00;100198.09;4990266;28;20034;-94
2022/11/21 09:37:00;;;;;;;30.97;8.40;;;;;;;3.98;100.00;100203.09;5002616;28;20494;-96
2022/11/21 09:39:36;;;;;;;;;;;;;;;;;;;;;
2022/11/21 09:42:36;;;;;;;33.75;8.70;;;;;;;4.06;100.00;100193.97;5000419;28;20129;-96
2022/11/21 09:45:31;;;;;;;28.80;8.00;;;;;;;4.01;100.00;100167.34;5007138;28;20054;-96
2022/11/21 09:48:27;;;;;;;;;;;;;;;;;;;;;
2022/11/21 09:51:39;;;;;;;32.13;8.73;;;;;;;4.05;100.00;100168.50;5009489;28;20053;-96
2022/11/21 09:54:25;;;;;;;;;;;;;;;;;;;;;
2022/11/21 09:56:58;;;;;;;29.23;9.30;;;;;;;4.19;100.00;100163.78;5014389;28;20308;-95
2022/11/21 09:59:32;;;;;;;30.88;10.20;;;;;;;4.21;100.00;100151.91;5019857;28;20057;-96
2022/11/21 10:02:52;;;;;;;;;;;;;;;;;;;;;
2022/11/21 10:06:02;;;;;;;;;;;;;;;;;;;;;
2022/11/21 10:09:32;;;;;;;30.38;9.25;;;;;;;4.44;100.00;100149.44;5016767;28;20050;-96
2022/11/21 10:48:58;;;;;;;;;;;;;;;;;;;;;
2022/11/21 10:52:19;;;;;;;;;;;;;;;;;;;;;
2022/11/21 10:58:24;;;;;;;;;;;;;;;;;;;;;
2022/11/21 11:01:51;;;;;;;;;;;;;;;;;;;;;
2022/11/21 11:04:47;;;;;;;;;;;;;;;;;;;;;
2022/11/21 11:07:28;;;;;;;32.30;7.80;;;;;;;5.41;100.00;100084.03;5019466;28;20043;-92
2022/11/21 11:10:27;;;;;;;28.90;7.43;;;;;;;5.59;100.00;100083.00;5039341;28;20053;-95
2022/11/21 11:18:53;;;;;;;25.43;7.13;;;;;;;6.05;100.00;100068.78;5057519;23;20072;-96
2022/11/21 11:21:34;;;;;;;;;;;;;;;;;;;;;
2022/11/21 11:24:49;;;;;;;;;;;;;;;;;;;;;
2022/11/21 11:27:26;;;;;;;19.13;6.20;;;;;;;6.27;100.00;100044.03;4996791;28;20133;-95
2022/11/21 11:29:54;;;;;;;20.95;6.30;;;;;;;6.16;100.00;100027.97;5009041;28;20037;-94
2022/11/21 11:32:20;;;;;;;14.23;5.35;;;;;;;6.29;100.00;100044.59;5016441;28;20033;-95
2022/11/21 11:34:51;;;;;;;19.23;4.88;;;;;;;6.30;100.00;100048.88;5015869;28;20018;-95
2022/11/21 11:38:21;;;;;;;;;;;;;;;;;;;;;
2022/11/21 11:41:21;;;;;;;;;;;;;;;;;;;;;
2022/11/21 11:47:40;;;;;;;12.05;3.35;;;;;;;5.91;100.00;100002.63;5189921;23;20114;-96
2022/11/21 11:50:45;;;;;;;;;;;;;;;;;;;;;
2022/11/21 11:53:31;;;;;;;;;;;;;;;;;;;;;
2022/11/21 11:56:09;;;;;;;9.85;2.17;;;;;;;5.89;100.00;99983.44;5016578;28;20053;-96
2022/11/21 11:59:16;;;;;;;8.10;1.75;;;;;;;5.86;100.00;99994.56;5008641;28;20026;-96
2022/11/21 12:02:00;;;;;;;6.00;1.60;;;;;;;5.76;100.00;99981.94;4999721;28;20038;-96
2022/11/21 12:04:32;;;;;;;8.13;1.90;;;;;;;5.74;100.00;99969.97;5011453;28;20041;-96
2022/11/21 12:07:16;;;;;;;8.80;2.35;;;;;;;5.69;100.00;99967.22;5014240;28;20034;-96
2022/11/21 12:09:55;;;;;;;8.23;1.95;;;;;;;5.72;100.00;99967.56;5013344;28;20044;-96
2022/11/21 12:12:41;;;;;;;8.90;1.92;;;;;;;5.74;100.00;99964.66;5016664;28;20014;-95
2022/11/21 12:18:08;;;;;;;11.10;1.67;;;;;;;5.77;100.00;99950.88;5017937;28;20053;-96
2022/11/21 12:20:44;;;;;;;9.03;1.90;;;;;;;5.75;100.00;99945.78;5018144;28;20289;-96
2022/11/21 12:23:22;;;;;;;9.10;1.80;;;;;;;5.75;100.00;99934.34;5016549;28;20030;-96
2022/11/21 12:26:20;;;;;;;7.07;1.90;;;;;;;5.68;100.00;99928.41;4998961;28;20274;-96
2022/11/21 12:29:09;;;;;;;7.57;1.40;;;;;;;5.66;100.00;99925.22;4999080;28;20014;-96
2022/11/21 12:32:36;;;;;;;;;;;;;;;;;;;;;
2022/11/21 12:35:47;;;;;;;;;;;;;;;;;;;;;
2022/11/21 14:09:05;;;;;;;10.40;2.00;;;;;;;5.86;100.00;99718.06;5003858;23;20065;-96
2022/11/21 14:11:52;;;;;;;5.47;1.90;;;;;;;5.83;100.00;99713.25;5026954;28;20037;-96
2022/11/21 14:14:43;;;;;;;6.87;2.07;;;;;;;5.82;100.00;99718.81;5029600;28;20029;-96
2022/11/21 14:17:15;;;;;;;8.43;2.07;;;;;;;5.76;100.00;99699.38;5012955;28;20332;-96
2022/11/21 14:19:44;;;;;;;10.75;1.95;;;;;;;5.77;100.00;99695.66;5007138;28;20027;-96
2022/11/21 14:22:26;;;;;;;9.43;2.72;;;;;;;5.78;100.00;99688.47;5004935;28;20478;-96
2022/11/21 14:24:53;;;;;;;10.25;3.28;;;;;;;5.78;100.00;99683.16;5018818;28;20109;-96
2022/11/21 14:27:31;;;;;;;10.13;2.60;;;;;;;5.78;100.00;99686.63;5021579;28;20489;-96
2022/11/21 14:52:43;;;;;;;5.47;2.70;;;;;;;5.78;100.00;99635.31;4413347;23;20517;-96
2022/11/21 15:05:02;;;;;;;;;;;;;;;;;;;;;
2022/11/21 15:08:19;;;;;;;;;;;;;;;;;;;;;
2022/11/21 15:14:51;;;;;;;;;;;;;;;;;;;;;
2022/11/21 15:18:25;;;;;;;;;;;;;;;;;;;;;
2022/11/21 15:23:32;;;;;;;7.30;2.95;;;;;;;5.34;100.00;99561.91;5049652;23;20060;-93
2022/11/21 15:25:59;;;;;;;11.57;3.00;;;;;;;5.37;100.00;99561.41;5014418;28;20081;-92
2022/11/21 15:28:33;;;;;;;5.35;2.75;;;;;;;5.40;100.00;99567.00;5025119;28;20013;-92
2022/11/21 15:31:19;;;;;;;11.50;3.00;;;;;;;5.41;100.00;99573.13;5030135;28;20081;-93
2022/11/21 15:34:01;;;;;;;10.53;3.23;;;;;;;5.40;100.00;99561.69;5032458;28;20295;-93
2022/11/21 15:36:28;;;;;;;9.45;3.00;;;;;;;5.41;100.00;99551.88;5029792;28;20030;-94
2022/11/21 15:39:03;;;;;;;7.63;2.88;;;;;;;5.43;100.00;99536.47;5029456;28;20113;-93
2022/11/21 15:41:33;;;;;;;12.00;2.45;;;;;;;5.41;100.00;99531.41;5018202;28;20041;-90
2022/11/21 15:44:01;;;;;;;6.53;2.55;;;;;;;5.47;100.00;99518.97;5016595;28;20031;-91
2022/11/21 15:46:32;;;;;;;9.43;2.42;;;;;;;5.46;100.00;99512.06;5015441;28;20030;-92
2022/11/21 15:48:58;;;;;;;7.13;2.53;;;;;;;5.47;100.00;99505.69;5014507;28;20492;-92
2022/11/21 15:51:31;;;;;;;7.27;2.43;;;;;;;5.43;100.00;99502.72;5028539;28;20391;-92
2022/11/21 15:53:56;;;;;;;10.50;3.75;;;;;;;5.46;100.00;99517.38;5013370;28;20489;-92
2022/11/21 15:56:22;;;;;;;8.87;2.23;;;;;;;5.44;100.00;99512.31;5014334;28;20029;-91
2022/11/21 15:58:49;;;;;;;9.60;2.20;;;;;;;5.48;100.00;99519.75;5014501;28;20014;-92
2022/11/21 16:01:21;;;;;;;7.67;2.10;;;;;;;5.47;100.00;99513.66;5013672;28;20037;-91
2022/11/21 16:03:48;;;;;;;7.00;1.70;;;;;;;5.49;100.00;99511.53;5009707;28;20038;-91